Time;durP1;ratioP1;P1;durP2;ratioP2;P2;SDS_P1;SDS_P2;PMS_P1;PMS_P2;Temp;Humidity;BMP_temperature;BMP_pressure;BME280_temperature;BME280_humidity;BME280_pressure;Samples;Min_cycle;Max_cycle;Signal;HPM_P1;HPM_P2
2022/09/30 00:01:32;;;;;;;11.02;5.70;;;;;;;;;;5006036;28;20034;-75
2022/09/30 00:03:58;;;;;;;15.55;6.60;;;;;;;;;;5001360;28;20403;-76
2022/09/30 00:06:25;;;;;;;12.40;7.40;;;;;;;;;;5003191;28;20034;-75
2022/09/30 00:08:52;;;;;;;16.30;7.65;;;;;;;;;;5005077;28;20542;-75
2022/09/30 00:11:19;;;;;;;13.43;7.50;;;;;;;;;;5003861;28;20034;-75
2022/09/30 00:13:47;;;;;;;14.43;7.03;;;;;;;;;;4997151;28;20030;-75
2022/09/30 00:16:14;;;;;;;11.85;5.82;;;;;;;;;;5000300;28;20108;-75
2022/09/30 00:18:40;;;;;;;13.77;5.70;;;;;;;;;;4998071;28;20041;-75
2022/09/30 00:21:07;;;;;;;11.20;5.85;;;;;;;;;;4995128;28;20088;-75
2022/09/30 00:23:33;;;;;;;11.15;5.25;;;;;;;;;;4991521;28;20078;-75
2022/09/30 00:26:00;;;;;;;14.45;5.40;;;;;;;;;;4996911;28;20034;-76
2022/09/30 00:28:27;;;;;;;10.00;5.82;;;;;;;;;;4999434;28;20045;-75
2022/09/30 00:30:53;;;;;;;14.00;9.20;;;;;;;;;;5005051;28;20061;-75
2022/09/30 00:33:20;;;;;;;14.38;7.28;;;;;;;;;;4999745;28;20111;-75
2022/09/30 00:35:45;;;;;;;19.73;8.40;;;;;;;;;;4998485;28;20033;-76
2022/09/30 00:38:11;;;;;;;20.40;10.68;;;;;;;;;;5001796;28;20038;-75
2022/09/30 00:40:38;;;;;;;17.60;8.50;;;;;;;;;;4999635;28;20038;-75
2022/09/30 00:43:10;;;;;;;19.52;9.00;;;;;;;;;;4999608;28;20034;-76
2022/09/30 00:45:36;;;;;;;17.13;9.10;;;;;;;;;;5001555;28;20042;-75
2022/09/30 00:48:03;;;;;;;18.17;8.73;;;;;;;;;;5000303;28;20034;-75
2022/09/30 00:50:41;;;;;;;19.88;9.82;;;;;;;;;;5005696;28;20574;-75
2022/09/30 00:53:22;;;;;;;17.17;8.60;;;;;;;;;;4996015;28;20036;-75
2022/09/30 00:55:57;;;;;;;21.25;9.88;;;;;;;;;;5000887;28;20349;-75
2022/09/30 00:58:26;;;;;;;15.27;7.60;;;;;;;;;;5003818;28;20780;-75
2022/09/30 01:00:52;;;;;;;15.50;7.72;;;;;;;;;;5000993;28;20033;-75
2022/09/30 01:03:21;;;;;;;15.40;8.32;;;;;;;;;;4997322;28;20034;-75
2022/09/30 01:05:47;;;;;;;13.15;7.60;;;;;;;;;;5002732;28;20044;-75
2022/09/30 01:08:17;;;;;;;13.13;6.97;;;;;;;;;;5006485;28;20030;-75
2022/09/30 01:10:43;;;;;;;17.30;8.13;;;;;;;;;;4999587;28;20030;-75
2022/09/30 01:13:09;;;;;;;13.23;6.45;;;;;;;;;;5000923;28;20031;-75
2022/09/30 01:15:51;;;;;;;13.57;7.63;;;;;;;;;;5001765;28;20045;-76
2022/09/30 01:18:20;;;;;;;14.38;6.65;;;;;;;;;;5002574;28;20042;-75
2022/09/30 01:20:46;;;;;;;11.80;6.10;;;;;;;;;;5002414;28;20045;-75
2022/09/30 01:23:15;;;;;;;18.95;11.98;;;;;;;;;;5000172;28;20506;-75
2022/09/30 01:25:53;;;;;;;21.23;13.57;;;;;;;;;;5002057;28;20058;-75
2022/09/30 01:28:28;;;;;;;29.85;13.75;;;;;;;;;;5005836;28;20037;-76
2022/09/30 01:31:12;;;;;;;26.63;12.32;;;;;;;;;;4999608;28;20049;-75
2022/09/30 01:33:38;;;;;;;19.38;11.20;;;;;;;;;;4995749;28;20100;-75
2022/09/30 01:36:10;;;;;;;21.92;13.27;;;;;;;;;;4998514;28;20037;-75
2022/09/30 01:38:48;;;;;;;17.87;9.63;;;;;;;;;;5001643;28;20114;-75
2022/09/30 01:41:17;;;;;;;13.25;8.02;;;;;;;;;;5001924;28;20374;-75
2022/09/30 01:43:44;;;;;;;13.80;7.15;;;;;;;;;;4999955;28;20034;-75
2022/09/30 01:46:28;;;;;;;17.75;7.32;;;;;;;;;;5006183;28;20028;-75
2022/09/30 01:49:13;;;;;;;15.18;8.32;;;;;;;;;;4996230;28;20037;-75
2022/09/30 01:51:43;;;;;;;14.75;7.07;;;;;;;;;;4998022;28;20420;-75
2022/09/30 01:54:13;;;;;;;11.10;6.10;;;;;;;;;;4995939;28;20064;-75
2022/09/30 01:56:42;;;;;;;13.57;6.57;;;;;;;;;;4996012;28;20056;-74
2022/09/30 01:59:27;;;;;;;15.93;8.10;;;;;;;;;;4996242;28;20495;-75
2022/09/30 02:01:56;;;;;;;13.73;7.97;;;;;;;;;;5002162;28;20040;-75
2022/09/30 02:04:30;;;;;;;13.23;7.40;;;;;;;;;;5005030;28;20050;-75
2022/09/30 02:07:00;;;;;;;11.07;6.00;;;;;;;;;;5004254;28;20038;-75
2022/09/30 02:09:32;;;;;;;11.38;6.38;;;;;;;;;;5000469;28;20038;-74
2022/09/30 02:12:00;;;;;;;13.48;7.95;;;;;;;;;;5001626;28;20104;-74
2022/09/30 02:14:32;;;;;;;12.15;6.38;;;;;;;;;;5006669;28;20057;-75
2022/09/30 02:17:01;;;;;;;8.95;3.92;;;;;;;;;;5001853;28;20038;-75
2022/09/30 02:19:45;;;;;;;8.48;3.95;;;;;;;;;;4998451;28;20034;-75
2022/09/30 02:22:11;;;;;;;6.75;4.13;;;;;;;;;;5002929;28;20556;-75
2022/09/30 02:24:37;;;;;;;7.60;4.40;;;;;;;;;;4993721;28;20034;-75
2022/09/30 02:27:05;;;;;;;7.20;3.33;;;;;;;;;;5002710;28;20068;-75
2022/09/30 02:29:34;;;;;;;6.13;3.40;;;;;;;;;;5003199;28;20038;-75
2022/09/30 02:32:01;;;;;;;13.77;6.03;;;;;;;;;;4996895;28;20037;-74
2022/09/30 02:34:31;;;;;;;14.55;5.18;;;;;;;;;;5001242;28;20386;-75
2022/09/30 02:37:07;;;;;;;9.10;4.90;;;;;;;;;;5000247;28;20041;-75
2022/09/30 02:39:41;;;;;;;8.65;4.88;;;;;;;;;;5000117;28;20438;-75
2022/09/30 02:42:19;;;;;;;6.32;4.00;;;;;;;;;;4999491;28;20042;-75
2022/09/30 02:44:46;;;;;;;10.82;5.47;;;;;;;;;;4999458;28;20088;-75
2022/09/30 02:47:15;;;;;;;10.55;5.40;;;;;;;;;;5003686;28;20099;-75
2022/09/30 02:49:41;;;;;;;9.45;6.22;;;;;;;;;;4998074;28;20129;-75
2022/09/30 02:52:14;;;;;;;9.25;6.20;;;;;;;;;;4994294;28;20117;-75
2022/09/30 02:54:49;;;;;;;11.73;7.25;;;;;;;;;;5000089;28;20026;-75
2022/09/30 02:57:22;;;;;;;13.02;8.70;;;;;;;;;;5003789;28;20797;-75
2022/09/30 02:59:51;;;;;;;14.20;7.15;;;;;;;;;;5001309;28;20044;-75
2022/09/30 03:02:17;;;;;;;9.90;7.18;;;;;;;;;;4996924;28;20033;-75
2022/09/30 03:04:45;;;;;;;9.70;6.80;;;;;;;;;;5001541;28;20585;-74
2022/09/30 03:07:11;;;;;;;8.73;5.60;;;;;;;;;;5005705;28;20048;-75
2022/09/30 03:09:37;;;;;;;11.18;6.25;;;;;;;;;;5000679;28;20129;-75
2022/09/30 03:12:20;;;;;;;10.30;6.28;;;;;;;;;;4997587;28;20041;-75
2022/09/30 03:14:52;;;;;;;9.45;6.32;;;;;;;;;;5001870;28;20392;-75
2022/09/30 03:17:18;;;;;;;11.95;6.70;;;;;;;;;;4994937;28;20045;-75
2022/09/30 03:19:59;;;;;;;10.88;6.60;;;;;;;;;;5000863;28;20033;-75
2022/09/30 03:22:32;;;;;;;6.78;4.78;;;;;;;;;;4998691;28;20129;-75
2022/09/30 03:25:04;;;;;;;8.35;5.10;;;;;;;;;;5000573;28;20044;-75
2022/09/30 03:27:41;;;;;;;9.40;4.85;;;;;;;;;;4995143;28;20874;-75
2022/09/30 03:30:10;;;;;;;4.93;2.90;;;;;;;;;;4999112;28;20038;-75
2022/09/30 03:32:39;;;;;;;3.40;1.25;;;;;;;;;;4996961;28;20492;-75
2022/09/30 03:35:17;;;;;;;2.13;0.80;;;;;;;;;;4999911;28;20030;-75
2022/09/30 03:37:50;;;;;;;1.80;0.90;;;;;;;;;;4993364;28;20062;-75
2022/09/30 03:40:19;;;;;;;3.45;1.15;;;;;;;;;;4998266;28;20034;-75
2022/09/30 03:42:53;;;;;;;2.38;1.10;;;;;;;;;;5004374;28;20038;-75
2022/09/30 03:45:23;;;;;;;3.13;1.33;;;;;;;;;;4990642;28;20473;-75
2022/09/30 03:47:51;;;;;;;3.00;1.20;;;;;;;;;;4999108;28;20035;-75
2022/09/30 03:50:20;;;;;;;2.25;0.90;;;;;;;;;;4998618;28;20045;-75
2022/09/30 03:52:47;;;;;;;3.63;1.30;;;;;;;;;;4997633;28;20141;-75
2022/09/30 03:55:14;;;;;;;3.13;1.40;;;;;;;;;;4994365;28;20038;-75
2022/09/30 03:57:41;;;;;;;3.28;1.05;;;;;;;;;;4994610;28;20074;-75
2022/09/30 04:00:08;;;;;;;2.65;1.23;;;;;;;;;;4995315;28;20030;-75
2022/09/30 04:02:36;;;;;;;2.65;1.10;;;;;;;;;;4997700;28;20030;-75
2022/09/30 04:05:02;;;;;;;3.55;1.27;;;;;;;;;;4993264;28;20062;-75
2022/09/30 04:07:28;;;;;;;2.08;1.10;;;;;;;;;;4999381;28;20065;-75
2022/09/30 04:09:55;;;;;;;3.70;1.30;;;;;;;;;;4995537;28;20122;-75
2022/09/30 04:12:21;;;;;;;4.53;1.23;;;;;;;;;;4995448;28;20052;-75
2022/09/30 04:14:47;;;;;;;2.78;1.10;;;;;;;;;;4992726;28;20528;-75
2022/09/30 04:17:13;;;;;;;2.17;1.00;;;;;;;;;;4999639;28;20160;-75
2022/09/30 04:19:39;;;;;;;2.53;1.00;;;;;;;;;;4997578;28;20038;-75
2022/09/30 04:22:06;;;;;;;3.47;1.40;;;;;;;;;;5000991;28;20062;-75
2022/09/30 04:24:32;;;;;;;4.43;2.05;;;;;;;;;;5003684;28;20535;-75
2022/09/30 04:26:58;;;;;;;5.30;2.45;;;;;;;;;;4998435;28;20038;-75
2022/09/30 04:29:24;;;;;;;5.18;2.67;;;;;;;;;;5002396;28;20112;-75
2022/09/30 04:31:50;;;;;;;6.45;2.13;;;;;;;;;;5005092;28;20149;-75
2022/09/30 04:34:16;;;;;;;5.10;1.48;;;;;;;;;;5001883;28;20141;-75
2022/09/30 04:36:42;;;;;;;4.55;1.48;;;;;;;;;;5002171;28;20034;-75
2022/09/30 04:39:08;;;;;;;4.75;2.13;;;;;;;;;;5000243;28;20026;-75
2022/09/30 04:41:35;;;;;;;6.05;2.30;;;;;;;;;;4995229;28;20109;-75
2022/09/30 04:44:05;;;;;;;5.25;3.00;;;;;;;;;;5001001;28;20052;-75
2022/09/30 04:46:32;;;;;;;3.75;1.52;;;;;;;;;;5004163;28;20400;-75
2022/09/30 04:48:58;;;;;;;4.15;1.50;;;;;;;;;;5001780;28;20057;-75
2022/09/30 04:51:24;;;;;;;5.13;1.85;;;;;;;;;;4998103;28;20053;-75
2022/09/30 04:53:49;;;;;;;4.68;2.13;;;;;;;;;;5006154;28;20037;-75
2022/09/30 04:56:16;;;;;;;5.47;1.75;;;;;;;;;;4999851;28;20052;-75
2022/09/30 04:58:42;;;;;;;6.00;1.58;;;;;;;;;;4993579;28;20045;-76
2022/09/30 05:01:12;;;;;;;4.88;1.38;;;;;;;;;;5000558;28;20114;-75
2022/09/30 05:03:38;;;;;;;4.68;2.42;;;;;;;;;;5001934;28;20034;-75
2022/09/30 05:06:04;;;;;;;5.72;2.78;;;;;;;;;;5005121;28;20036;-75
2022/09/30 05:08:32;;;;;;;6.28;2.97;;;;;;;;;;5005501;28;20499;-75
2022/09/30 05:11:08;;;;;;;4.95;2.85;;;;;;;;;;5006005;28;20026;-75
2022/09/30 05:13:35;;;;;;;5.53;3.90;;;;;;;;;;5002698;28;20029;-75
2022/09/30 05:16:02;;;;;;;5.78;3.88;;;;;;;;;;5003295;28;20061;-75
2022/09/30 05:18:28;;;;;;;4.05;2.22;;;;;;;;;;5001217;28;20033;-75
2022/09/30 05:20:56;;;;;;;4.63;1.60;;;;;;;;;;5000735;28;20058;-75
2022/09/30 05:23:22;;;;;;;5.30;1.33;;;;;;;;;;4999402;28;20066;-75
2022/09/30 05:25:49;;;;;;;7.80;1.88;;;;;;;;;;5001731;28;20137;-75
2022/09/30 05:28:15;;;;;;;5.35;1.70;;;;;;;;;;4999969;28;20073;-75
2022/09/30 05:30:42;;;;;;;3.40;1.77;;;;;;;;;;4996955;28;20068;-75
2022/09/30 05:33:08;;;;;;;7.78;3.50;;;;;;;;;;5005272;28;20495;-75
2022/09/30 05:35:34;;;;;;;5.55;1.92;;;;;;;;;;4998071;28;20034;-75
2022/09/30 05:38:02;;;;;;;6.85;3.15;;;;;;;;;;5002413;28;20041;-75
2022/09/30 05:40:28;;;;;;;7.90;3.83;;;;;;;;;;4995201;28;20037;-75
2022/09/30 05:42:56;;;;;;;10.88;3.90;;;;;;;;;;5001070;28;20038;-75
2022/09/30 05:45:22;;;;;;;6.53;3.72;;;;;;;;;;5000770;28;20142;-75
2022/09/30 05:47:54;;;;;;;6.35;3.13;;;;;;;;;;4991885;28;20034;-75
2022/09/30 05:50:21;;;;;;;5.30;2.85;;;;;;;;;;5007082;28;20054;-75
2022/09/30 05:52:48;;;;;;;4.90;2.58;;;;;;;;;;5003094;28;20140;-74
2022/09/30 05:55:14;;;;;;;8.60;4.32;;;;;;;;;;5003657;28;20106;-75
2022/09/30 05:57:40;;;;;;;7.45;5.00;;;;;;;;;;4997475;28;20038;-75
2022/09/30 06:00:06;;;;;;;8.55;4.72;;;;;;;;;;4998255;28;20053;-75
2022/09/30 06:02:37;;;;;;;11.82;5.00;;;;;;;;;;4994395;28;20162;-75
2022/09/30 06:05:03;;;;;;;8.02;4.38;;;;;;;;;;4996610;28;20041;-75
2022/09/30 06:07:29;;;;;;;7.78;3.95;;;;;;;;;;4997521;28;20038;-75
2022/09/30 06:09:55;;;;;;;4.63;1.83;;;;;;;;;;4997532;28;20103;-75
2022/09/30 06:12:21;;;;;;;3.13;1.40;;;;;;;;;;4996263;28;20037;-75
2022/09/30 06:14:47;;;;;;;5.30;2.00;;;;;;;;;;5003843;28;20046;-75
2022/09/30 06:17:13;;;;;;;4.32;2.17;;;;;;;;;;5000534;28;20087;-75
2022/09/30 06:19:39;;;;;;;7.13;1.48;;;;;;;;;;4995639;28;20045;-75
2022/09/30 06:22:05;;;;;;;4.13;1.73;;;;;;;;;;4999791;28;20054;-75
2022/09/30 06:24:31;;;;;;;5.90;2.83;;;;;;;;;;5001721;28;20075;-75
2022/09/30 06:26:57;;;;;;;3.78;2.05;;;;;;;;;;4997663;28;20817;-75
2022/09/30 06:29:23;;;;;;;5.10;2.90;;;;;;;;;;4995202;28;20053;-75
2022/09/30 06:31:49;;;;;;;5.00;2.60;;;;;;;;;;4999646;28;20526;-75
2022/09/30 06:34:15;;;;;;;7.10;3.70;;;;;;;;;;4997808;28;20026;-75
2022/09/30 06:36:41;;;;;;;6.55;2.67;;;;;;;;;;4992664;28;20582;-75
2022/09/30 06:39:07;;;;;;;11.95;3.30;;;;;;;;;;4997500;28;20101;-75
2022/09/30 06:41:38;;;;;;;7.63;3.58;;;;;;;;;;4997615;28;20034;-75
2022/09/30 06:44:04;;;;;;;6.43;3.25;;;;;;;;;;4995210;28;20030;-75
2022/09/30 06:46:30;;;;;;;10.57;3.35;;;;;;;;;;4999928;28;20025;-75
2022/09/30 06:48:57;;;;;;;8.18;3.13;;;;;;;;;;4994011;28;20415;-75
2022/09/30 06:51:28;;;;;;;6.07;3.30;;;;;;;;;;4993958;28;20028;-75
2022/09/30 06:53:55;;;;;;;6.18;2.90;;;;;;;;;;4998543;28;20034;-75
2022/09/30 06:56:21;;;;;;;9.30;3.40;;;;;;;;;;4996898;28;20022;-75
2022/09/30 06:58:47;;;;;;;10.30;4.05;;;;;;;;;;5002148;28;20040;-75
2022/09/30 07:01:14;;;;;;;5.30;1.85;;;;;;;;;;4999893;28;20030;-75
2022/09/30 07:03:40;;;;;;;6.57;2.63;;;;;;;;;;4998836;28;20048;-75
2022/09/30 07:06:06;;;;;;;8.40;2.28;;;;;;;;;;5001754;28;20109;-75
2022/09/30 07:08:33;;;;;;;3.97;2.33;;;;;;;;;;4996655;28;20133;-75
2022/09/30 07:11:00;;;;;;;5.45;2.80;;;;;;;;;;4996943;28;20469;-75
2022/09/30 07:13:27;;;;;;;4.60;2.55;;;;;;;;;;4998198;28;20034;-75
2022/09/30 07:15:55;;;;;;;7.88;2.65;;;;;;;;;;4999747;28;20091;-75
2022/09/30 07:18:21;;;;;;;7.00;2.65;;;;;;;;;;4996239;28;20033;-75
2022/09/30 07:20:51;;;;;;;5.85;3.05;;;;;;;;;;5000467;28;20379;-75
2022/09/30 07:23:17;;;;;;;6.18;3.00;;;;;;;;;;4995567;28;20571;-75
2022/09/30 07:25:50;;;;;;;5.78;3.63;;;;;;;;;;4994518;28;20121;-75
2022/09/30 07:28:16;;;;;;;7.00;3.10;;;;;;;;;;4997901;28;20065;-75
2022/09/30 07:30:43;;;;;;;6.30;3.25;;;;;;;;;;4998803;28;20037;-75
2022/09/30 07:33:15;;;;;;;6.72;3.90;;;;;;;;;;5002154;28;20438;-75
2022/09/30 07:35:42;;;;;;;;;;;;;;;;;;4999713;28;20022;-75
2022/09/30 07:38:09;;;;;;;8.68;2.97;;;;;;;;;;4998705;28;19918;-75
2022/09/30 07:40:35;;;;;;;7.70;3.13;;;;;;;;;;4998638;28;20038;-75
2022/09/30 07:43:02;;;;;;;7.78;2.80;;;;;;;;;;4995352;28;20069;-75
2022/09/30 07:45:28;;;;;;;6.55;2.90;;;;;;;;;;4997565;28;20041;-74
2022/09/30 07:47:54;;;;;;;7.18;3.38;;;;;;;;;;4996549;28;20034;-75
2022/09/30 07:50:20;;;;;;;6.97;2.95;;;;;;;;;;4996010;28;20395;-75
2022/09/30 07:52:46;;;;;;;8.07;3.47;;;;;;;;;;4999119;28;20030;-75
2022/09/30 07:55:11;;;;;;;6.57;3.30;;;;;;;;;;5000048;28;20037;-75
2022/09/30 07:57:37;;;;;;;9.40;3.55;;;;;;;;;;4999669;28;20418;-75
2022/09/30 08:00:04;;;;;;;5.45;2.47;;;;;;;;;;4999150;28;20038;-75
2022/09/30 08:02:30;;;;;;;4.78;2.00;;;;;;;;;;4998242;28;20065;-75
2022/09/30 08:04:56;;;;;;;4.85;2.30;;;;;;;;;;4996416;28;20066;-75
2022/09/30 08:07:22;;;;;;;7.68;2.78;;;;;;;;;;4998193;28;20064;-75
2022/09/30 08:09:48;;;;;;;9.75;3.15;;;;;;;;;;4997438;28;20057;-75
2022/09/30 08:12:14;;;;;;;7.43;2.33;;;;;;;;;;4994687;28;20791;-75
2022/09/30 08:14:40;;;;;;;5.88;2.28;;;;;;;;;;4995055;28;20034;-75
2022/09/30 08:17:06;;;;;;;7.57;2.42;;;;;;;;;;4995363;28;20062;-75
2022/09/30 08:19:32;;;;;;;5.82;2.22;;;;;;;;;;4995400;28;20066;-75
2022/09/30 08:21:58;;;;;;;12.35;2.90;;;;;;;;;;4995664;28;20038;-75
2022/09/30 08:24:25;;;;;;;5.82;2.10;;;;;;;;;;5001654;28;20045;-75
2022/09/30 08:26:51;;;;;;;4.90;2.40;;;;;;;;;;4997617;28;20042;-75
2022/09/30 08:29:17;;;;;;;5.90;2.20;;;;;;;;;;4993609;28;20042;-75
2022/09/30 08:31:43;;;;;;;8.13;2.75;;;;;;;;;;4994887;28;20462;-75
2022/09/30 08:34:09;;;;;;;7.35;2.42;;;;;;;;;;4997965;28;20030;-74
2022/09/30 08:36:35;;;;;;;6.28;2.55;;;;;;;;;;4993100;28;20026;-75
2022/09/30 08:39:01;;;;;;;5.63;2.38;;;;;;;;;;4999748;28;20030;-75
2022/09/30 08:41:33;;;;;;;5.00;2.35;;;;;;;;;;4996333;28;20105;-75
2022/09/30 08:44:18;;;;;;;4.60;2.55;;;;;;;;;;4998422;28;20049;-75
2022/09/30 08:46:46;;;;;;;8.23;3.28;;;;;;;;;;4996167;28;20053;-74
2022/09/30 08:49:22;;;;;;;7.53;3.35;;;;;;;;;;4994025;28;20395;-75
2022/09/30 08:51:49;;;;;;;12.65;3.40;;;;;;;;;;4994826;28;20045;-75
2022/09/30 08:54:20;;;;;;;5.38;2.75;;;;;;;;;;4997539;28;20030;-74
2022/09/30 08:56:46;;;;;;;5.80;2.90;;;;;;;;;;4998835;28;20034;-75
2022/09/30 08:59:13;;;;;;;7.30;3.15;;;;;;;;;;4990417;28;20038;-74
2022/09/30 09:01:40;;;;;;;7.05;2.90;;;;;;;;;;4994006;28;20034;-75
2022/09/30 09:04:07;;;;;;;5.70;3.10;;;;;;;;;;5000019;28;20045;-74
2022/09/30 09:06:36;;;;;;;7.70;3.50;;;;;;;;;;4995384;28;20368;-74
2022/09/30 09:09:25;;;;;;;7.07;3.88;;;;;;;;;;4995858;28;20117;-75
2022/09/30 09:11:52;;;;;;;5.78;2.58;;;;;;;;;;4996851;28;20369;-75
2022/09/30 09:14:18;;;;;;;7.40;3.13;;;;;;;;;;4995182;28;20022;-75
2022/09/30 09:16:44;;;;;;;6.75;3.67;;;;;;;;;;4995743;28;20667;-75
2022/09/30 09:19:11;;;;;;;6.88;2.55;;;;;;;;;;5001238;28;20030;-75
2022/09/30 09:21:37;;;;;;;5.85;2.60;;;;;;;;;;4998805;28;20413;-75
2022/09/30 09:24:05;;;;;;;5.28;3.00;;;;;;;;;;5003836;28;20065;-75
2022/09/30 09:26:36;;;;;;;4.65;2.70;;;;;;;;;;5002288;28;20026;-75
2022/09/30 09:29:19;;;;;;;4.27;2.07;;;;;;;;;;4999898;28;20045;-75
2022/09/30 09:31:47;;;;;;;4.78;2.30;;;;;;;;;;4997872;28;20332;-74
2022/09/30 09:34:14;;;;;;;6.38;1.95;;;;;;;;;;5000495;28;20034;-75
2022/09/30 09:36:51;;;;;;;6.35;2.75;;;;;;;;;;4997954;28;20092;-75
2022/09/30 09:39:36;;;;;;;6.55;3.60;;;;;;;;;;4997683;28;20089;-75
2022/09/30 09:42:05;;;;;;;5.72;2.22;;;;;;;;;;4997690;28;20033;-75
2022/09/30 09:44:38;;;;;;;5.22;2.45;;;;;;;;;;4996046;28;20030;-75
2022/09/30 09:47:16;;;;;;;7.72;2.67;;;;;;;;;;5000609;28;20041;-75
2022/09/30 09:49:54;;;;;;;8.65;2.72;;;;;;;;;;4998375;28;20088;-75
2022/09/30 09:52:33;;;;;;;9.68;2.45;;;;;;;;;;5000271;28;20034;-75
2022/09/30 09:54:59;;;;;;;7.40;2.35;;;;;;;;;;4998264;28;20081;-75
2022/09/30 09:57:30;;;;;;;5.13;2.40;;;;;;;;;;4996539;28;20060;-75
2022/09/30 10:03:09;;;;;;;6.30;2.22;;;;;;;;;;4996644;28;20641;-75
2022/09/30 10:05:39;;;;;;;7.22;2.95;;;;;;;;;;4996155;28;20030;-75
2022/09/30 10:08:14;;;;;;;7.43;2.47;;;;;;;;;;4996478;28;20117;-75
2022/09/30 10:10:45;;;;;;;7.45;2.78;;;;;;;;;;4995039;28;20048;-75
2022/09/30 10:13:21;;;;;;;7.90;2.38;;;;;;;;;;5000903;28;20030;-75
2022/09/30 10:15:48;;;;;;;5.78;2.15;;;;;;;;;;4994392;28;20064;-75
2022/09/30 10:18:20;;;;;;;6.07;2.45;;;;;;;;;;4997804;28;20099;-75
2022/09/30 10:20:50;;;;;;;7.57;1.95;;;;;;;;;;4995784;28;20794;-75
2022/09/30 10:23:21;;;;;;;5.47;2.20;;;;;;;;;;4996550;28;20157;-75
2022/09/30 10:26:13;;;;;;;6.15;2.00;;;;;;;;;;5001405;28;20049;-75
2022/09/30 10:28:56;;;;;;;4.43;1.67;;;;;;;;;;4999114;28;20058;-75
2022/09/30 10:31:36;;;;;;;3.58;1.75;;;;;;;;;;4994215;28;20046;-75
2022/09/30 10:34:08;;;;;;;5.18;1.88;;;;;;;;;;4995689;28;20384;-75
2022/09/30 10:36:36;;;;;;;6.78;1.92;;;;;;;;;;5000343;28;20029;-75
2022/09/30 10:39:08;;;;;;;4.80;1.52;;;;;;;;;;5001191;28;20026;-75
2022/09/30 10:41:36;;;;;;;3.42;1.40;;;;;;;;;;5000005;28;20372;-75
2022/09/30 10:44:15;;;;;;;3.03;1.38;;;;;;;;;;4996137;28;20387;-75
2022/09/30 10:46:41;;;;;;;4.18;1.42;;;;;;;;;;4995845;28;20030;-75
2022/09/30 10:49:09;;;;;;;4.85;1.35;;;;;;;;;;5001202;28;20053;-75
2022/09/30 10:51:36;;;;;;;5.32;1.30;;;;;;;;;;4998109;28;20025;-75
2022/09/30 10:54:03;;;;;;;4.15;1.55;;;;;;;;;;4999619;28;20672;-75
2022/09/30 10:56:32;;;;;;;3.72;1.10;;;;;;;;;;4998587;28;20026;-75
2022/09/30 10:58:58;;;;;;;6.35;1.70;;;;;;;;;;4997418;28;20034;-75
2022/09/30 11:01:31;;;;;;;3.15;1.10;;;;;;;;;;4998818;28;20038;-75
2022/09/30 11:04:03;;;;;;;6.15;1.60;;;;;;;;;;4999217;28;20041;-75
2022/09/30 11:06:36;;;;;;;7.28;1.30;;;;;;;;;;4995423;28;20387;-75
2022/09/30 11:09:08;;;;;;;2.83;1.10;;;;;;;;;;4995901;28;20033;-75
2022/09/30 11:11:43;;;;;;;4.40;1.55;;;;;;;;;;4990986;28;20175;-75
2022/09/30 11:14:09;;;;;;;3.45;0.90;;;;;;;;;;4996870;28;20029;-75
2022/09/30 11:16:39;;;;;;;3.88;1.10;;;;;;;;;;4992594;28;20121;-75
2022/09/30 11:19:11;;;;;;;4.05;1.10;;;;;;;;;;4999653;28;20064;-75
2022/09/30 11:21:42;;;;;;;4.28;1.42;;;;;;;;;;4996463;28;20037;-75
2022/09/30 11:24:27;;;;;;;3.60;1.35;;;;;;;;;;4997961;28;20580;-75
2022/09/30 11:27:11;;;;;;;4.55;0.98;;;;;;;;;;4992461;28;20060;-74
2022/09/30 11:29:50;;;;;;;3.30;1.20;;;;;;;;;;4994915;28;21999;-75
2022/09/30 11:32:16;;;;;;;5.10;1.75;;;;;;;;;;4994318;28;20113;-75
2022/09/30 11:35:01;;;;;;;3.85;1.52;;;;;;;;;;4996964;28;20034;-75
2022/09/30 11:37:53;;;;;;;4.97;1.17;;;;;;;;;;4997988;28;20042;-75
2022/09/30 11:40:30;;;;;;;5.10;1.17;;;;;;;;;;4992859;28;20121;-75
2022/09/30 11:42:56;;;;;;;5.57;1.52;;;;;;;;;;4995020;28;20044;-75
2022/09/30 11:45:37;;;;;;;5.78;1.17;;;;;;;;;;4995826;28;20026;-75
2022/09/30 11:48:06;;;;;;;6.03;1.60;;;;;;;;;;4999455;28;20030;-75
2022/09/30 11:50:44;;;;;;;5.20;1.30;;;;;;;;;;4993513;28;20040;-75
2022/09/30 11:53:16;;;;;;;3.35;0.90;;;;;;;;;;4995342;28;20042;-75
2022/09/30 11:55:49;;;;;;;4.70;1.00;;;;;;;;;;4995419;28;20093;-75
2022/09/30 11:58:18;;;;;;;3.47;1.20;;;;;;;;;;4998164;28;20036;-75
2022/09/30 12:00:48;;;;;;;7.32;1.35;;;;;;;;;;4995228;28;20026;-75
2022/09/30 12:03:20;;;;;;;6.70;1.60;;;;;;;;;;4995556;28;20070;-75
2022/09/30 12:05:49;;;;;;;5.18;1.80;;;;;;;;;;4998454;28;20476;-74
2022/09/30 12:08:15;;;;;;;4.10;1.52;;;;;;;;;;4993367;28;20133;-75
2022/09/30 12:10:59;;;;;;;5.18;1.90;;;;;;;;;;4998908;28;20445;-75
2022/09/30 12:13:46;;;;;;;3.58;1.55;;;;;;;;;;4995714;28;20030;-75
2022/09/30 12:16:16;;;;;;;5.15;1.88;;;;;;;;;;4995382;28;20026;-75
2022/09/30 12:18:44;;;;;;;2.80;1.20;;;;;;;;;;4995139;28;20030;-75
2022/09/30 12:21:19;;;;;;;5.47;1.30;;;;;;;;;;4992400;28;20650;-75
2022/09/30 12:23:53;;;;;;;3.83;1.45;;;;;;;;;;4992483;28;20064;-75
2022/09/30 12:26:19;;;;;;;3.80;1.60;;;;;;;;;;4992464;28;20427;-75
2022/09/30 12:31:54;;;;;;;4.68;1.58;;;;;;;;;;4995350;28;20171;-75
2022/09/30 12:34:34;;;;;;;4.22;1.40;;;;;;;;;;4992552;28;20392;-75
2022/09/30 12:37:00;;;;;;;5.32;1.30;;;;;;;;;;4993438;28;20035;-75
2022/09/30 12:39:39;;;;;;;4.70;1.67;;;;;;;;;;4997050;28;20026;-75
2022/09/30 12:42:13;;;;;;;3.58;1.40;;;;;;;;;;4991330;28;20034;-75
2022/09/30 12:44:51;;;;;;;3.63;1.20;;;;;;;;;;4994419;28;20025;-74
2022/09/30 12:47:20;;;;;;;3.95;1.48;;;;;;;;;;4992449;28;20044;-75
2022/09/30 12:49:47;;;;;;;3.88;1.50;;;;;;;;;;5000233;28;20489;-75
2022/09/30 12:52:15;;;;;;;6.20;1.85;;;;;;;;;;4995419;28;20042;-75
2022/09/30 12:54:43;;;;;;;5.78;1.98;;;;;;;;;;4996398;28;20487;-75
2022/09/30 12:57:10;;;;;;;5.13;1.70;;;;;;;;;;4999285;28;20042;-75
2022/09/30 12:59:38;;;;;;;8.30;1.98;;;;;;;;;;4998337;28;20828;-75
2022/09/30 13:02:05;;;;;;;4.63;2.25;;;;;;;;;;4995495;28;20065;-75
2022/09/30 13:04:38;;;;;;;6.65;2.60;;;;;;;;;;4997530;28;20030;-75
2022/09/30 13:07:06;;;;;;;6.90;1.88;;;;;;;;;;4995700;28;20045;-75
2022/09/30 13:09:32;;;;;;;5.15;1.83;;;;;;;;;;4994702;28;20067;-75
2022/09/30 13:11:58;;;;;;;4.53;2.00;;;;;;;;;;5002088;28;20066;-75
2022/09/30 13:14:24;;;;;;;8.50;2.38;;;;;;;;;;4998772;28;20041;-74
2022/09/30 13:17:04;;;;;;;3.30;1.70;;;;;;;;;;5002578;28;20644;-75
2022/09/30 13:19:40;;;;;;;6.30;2.00;;;;;;;;;;4994184;28;20033;-75
2022/09/30 13:22:28;;;;;;;5.85;2.42;;;;;;;;;;5000043;28;20054;-75
2022/09/30 13:24:57;;;;;;;6.10;1.83;;;;;;;;;;5003177;28;20026;-75
2022/09/30 13:27:40;;;;;;;6.03;2.13;;;;;;;;;;4998274;28;20383;-74
2022/09/30 13:30:13;;;;;;;7.65;1.67;;;;;;;;;;4999146;28;20042;-75
2022/09/30 13:32:41;;;;;;;5.15;1.73;;;;;;;;;;4995988;28;20026;-75
2022/09/30 13:35:36;;;;;;;8.20;1.65;;;;;;;;;;4997676;28;20030;-75
2022/09/30 13:38:28;;;;;;;5.90;1.40;;;;;;;;;;4990336;28;20062;-75
2022/09/30 13:40:54;;;;;;;7.50;1.88;;;;;;;;;;4999684;28;20050;-75
2022/09/30 13:43:26;;;;;;;6.38;2.25;;;;;;;;;;4997926;28;20038;-75
2022/09/30 13:45:53;;;;;;;6.72;1.70;;;;;;;;;;4996539;28;20038;-75
2022/09/30 13:48:23;;;;;;;8.00;1.80;;;;;;;;;;5001523;28;20026;-74
2022/09/30 13:50:50;;;;;;;6.30;1.70;;;;;;;;;;5000659;28;20034;-75
2022/09/30 13:53:30;;;;;;;4.22;1.30;;;;;;;;;;4994583;28;20125;-75
2022/09/30 13:55:58;;;;;;;7.13;1.40;;;;;;;;;;5000863;28;20034;-74
2022/09/30 13:58:27;;;;;;;4.95;1.23;;;;;;;;;;4998155;28;20472;-74
2022/09/30 14:00:59;;;;;;;3.50;0.93;;;;;;;;;;5000890;28;20113;-74
2022/09/30 14:03:25;;;;;;;;;;;;;;;;;;5000262;28;20046;-75
2022/09/30 14:06:01;;;;;;;5.05;1.60;;;;;;;;;;4998327;28;20397;-75
2022/09/30 14:08:27;;;;;;;3.97;1.05;;;;;;;;;;4998707;28;20373;-75
2022/09/30 14:11:11;;;;;;;3.03;1.10;;;;;;;;;;4994705;28;20045;-75
2022/09/30 14:13:40;;;;;;;5.47;1.20;;;;;;;;;;4995646;28;20026;-75
2022/09/30 14:16:18;;;;;;;3.20;1.00;;;;;;;;;;4996785;28;20030;-75
2022/09/30 14:19:07;;;;;;;4.43;1.00;;;;;;;;;;4996861;28;20030;-75
2022/09/30 14:21:56;;;;;;;4.65;1.20;;;;;;;;;;4997096;28;20038;-75
2022/09/30 14:24:24;;;;;;;3.13;1.00;;;;;;;;;;4995225;28;20112;-75
2022/09/30 14:26:51;;;;;;;3.60;0.90;;;;;;;;;;4997407;28;20040;-75
2022/09/30 14:29:20;;;;;;;2.78;0.82;;;;;;;;;;4996888;28;20030;-75
2022/09/30 14:31:47;;;;;;;2.92;0.90;;;;;;;;;;5001051;28;20364;-75
2022/09/30 14:34:15;;;;;;;3.47;0.90;;;;;;;;;;4993682;28;20035;-75
2022/09/30 14:36:41;;;;;;;6.10;0.85;;;;;;;;;;4996523;28;20101;-75
2022/09/30 14:39:13;;;;;;;3.30;0.80;;;;;;;;;;4996107;28;20026;-75
2022/09/30 14:41:40;;;;;;;7.15;1.00;;;;;;;;;;4998585;28;20033;-75
2022/09/30 14:44:14;;;;;;;6.40;1.58;;;;;;;;;;4994282;28;20611;-75
2022/09/30 14:46:45;;;;;;;4.25;1.05;;;;;;;;;;5002278;28;20063;-75
2022/09/30 14:49:13;;;;;;;3.70;0.88;;;;;;;;;;4995591;28;20886;-75
2022/09/30 14:51:42;;;;;;;2.67;1.00;;;;;;;;;;4994013;28;20052;-75
2022/09/30 14:54:16;;;;;;;2.30;0.73;;;;;;;;;;4998589;28;20030;-74
2022/09/30 14:56:42;;;;;;;2.67;0.63;;;;;;;;;;4994818;28;20027;-75
2022/09/30 14:59:16;;;;;;;3.28;0.70;;;;;;;;;;4994789;28;20034;-74
2022/09/30 15:01:44;;;;;;;2.13;0.70;;;;;;;;;;4995028;28;20064;-75
2022/09/30 15:04:10;;;;;;;1.85;0.70;;;;;;;;;;4994797;28;20496;-75